sensor_id;sensor_type;location;lat;lon;timestamp;P1;durP1;ratioP1;P2;durP2;ratioP2
1775;SDS011;885;42.626;23.200;2023-07-13T00:00:08;4.50;;;4.10;;
1775;SDS011;885;42.626;23.200;2023-07-13T00:02:36;7.47;;;4.07;;
1775;SDS011;885;42.626;23.200;2023-07-13T00:05:03;7.03;;;3.60;;
1775;SDS011;885;42.626;23.200;2023-07-13T00:07:31;6.47;;;3.60;;
1775;SDS011;885;42.626;23.200;2023-07-13T00:09:58;5.70;;;3.90;;
1775;SDS011;885;42.626;23.200;2023-07-13T00:12:26;5.63;;;4.03;;
1775;SDS011;885;42.626;23.200;2023-07-13T00:14:55;4.50;;;3.40;;
1775;SDS011;885;42.626;23.200;2023-07-13T00:17:23;5.63;;;3.50;;
1775;SDS011;885;42.626;23.200;2023-07-13T00:19:50;5.57;;;3.30;;
1775;SDS011;885;42.626;23.200;2023-07-13T00:22:18;3.60;;;3.30;;
1775;SDS011;885;42.626;23.200;2023-07-13T00:24:46;3.83;;;3.43;;
1775;SDS011;885;42.626;23.200;2023-07-13T00:27:13;4.70;;;3.93;;
1775;SDS011;885;42.626;23.200;2023-07-13T00:29:40;4.67;;;3.80;;
1775;SDS011;885;42.626;23.200;2023-07-13T00:32:07;5.00;;;4.07;;
1775;SDS011;885;42.626;23.200;2023-07-13T00:34:36;4.97;;;4.27;;
1775;SDS011;885;42.626;23.200;2023-07-13T00:37:04;5.70;;;3.90;;
1775;SDS011;885;42.626;23.200;2023-07-13T00:39:32;4.70;;;3.77;;
1775;SDS011;885;42.626;23.200;2023-07-13T00:42:01;6.13;;;4.50;;
1775;SDS011;885;42.626;23.200;2023-07-13T00:44:29;4.13;;;3.30;;
1775;SDS011;885;42.626;23.200;2023-07-13T00:46:56;4.37;;;3.80;;
1775;SDS011;885;42.626;23.200;2023-07-13T00:49:24;3.40;;;3.10;;
1775;SDS011;885;42.626;23.200;2023-07-13T00:51:53;5.37;;;4.87;;
1775;SDS011;885;42.626;23.200;2023-07-13T00:54:27;6.60;;;3.87;;
1775;SDS011;885;42.626;23.200;2023-07-13T00:56:59;4.40;;;3.63;;
1775;SDS011;885;42.626;23.200;2023-07-13T00:59:30;4.53;;;4.13;;
1775;SDS011;885;42.626;23.200;2023-07-13T01:01:57;7.47;;;3.13;;
1775;SDS011;885;42.626;23.200;2023-07-13T01:04:24;7.10;;;3.97;;
1775;SDS011;885;42.626;23.200;2023-07-13T01:06:51;4.90;;;4.00;;
1775;SDS011;885;42.626;23.200;2023-07-13T01:09:19;5.23;;;4.10;;
1775;SDS011;885;42.626;23.200;2023-07-13T01:11:46;4.37;;;3.97;;
1775;SDS011;885;42.626;23.200;2023-07-13T01:14:15;5.43;;;3.97;;
1775;SDS011;885;42.626;23.200;2023-07-13T01:16:43;5.80;;;4.33;;
1775;SDS011;885;42.626;23.200;2023-07-13T01:19:16;5.93;;;4.70;;
1775;SDS011;885;42.626;23.200;2023-07-13T01:21:56;4.13;;;3.73;;
1775;SDS011;885;42.626;23.200;2023-07-13T01:24:23;4.90;;;4.17;;
1775;SDS011;885;42.626;23.200;2023-07-13T01:26:50;6.13;;;4.33;;
1775;SDS011;885;42.626;23.200;2023-07-13T01:29:17;6.17;;;4.40;;
1775;SDS011;885;42.626;23.200;2023-07-13T01:31:44;8.30;;;4.00;;
1775;SDS011;885;42.626;23.200;2023-07-13T01:34:11;4.80;;;4.00;;
1775;SDS011;885;42.626;23.200;2023-07-13T01:36:38;5.90;;;4.03;;
1775;SDS011;885;42.626;23.200;2023-07-13T01:39:06;5.30;;;4.80;;
1775;SDS011;885;42.626;23.200;2023-07-13T01:41:32;4.67;;;4.10;;
1775;SDS011;885;42.626;23.200;2023-07-13T01:44:00;4.97;;;3.97;;
1775;SDS011;885;42.626;23.200;2023-07-13T01:46:26;4.57;;;3.70;;
1775;SDS011;885;42.626;23.200;2023-07-13T01:48:53;6.23;;;5.50;;
1775;SDS011;885;42.626;23.200;2023-07-13T01:51:20;5.90;;;5.20;;
1775;SDS011;885;42.626;23.200;2023-07-13T01:53:47;6.80;;;4.60;;
1775;SDS011;885;42.626;23.200;2023-07-13T01:56:16;5.90;;;4.07;;
1775;SDS011;885;42.626;23.200;2023-07-13T01:58:43;5.10;;;4.50;;
1775;SDS011;885;42.626;23.200;2023-07-13T02:01:11;4.53;;;4.13;;
1775;SDS011;885;42.626;23.200;2023-07-13T02:03:37;4.67;;;4.27;;
1775;SDS011;885;42.626;23.200;2023-07-13T02:06:04;4.67;;;4.27;;
1775;SDS011;885;42.626;23.200;2023-07-13T02:08:31;6.33;;;4.97;;
1775;SDS011;885;42.626;23.200;2023-07-13T02:10:59;6.03;;;4.40;;
1775;SDS011;885;42.626;23.200;2023-07-13T02:13:27;4.57;;;4.07;;
1775;SDS011;885;42.626;23.200;2023-07-13T02:15:54;6.20;;;4.43;;
1775;SDS011;885;42.626;23.200;2023-07-13T02:18:21;5.23;;;4.43;;
1775;SDS011;885;42.626;23.200;2023-07-13T02:20:48;6.73;;;4.50;;
1775;SDS011;885;42.626;23.200;2023-07-13T02:23:14;4.20;;;3.80;;
1775;SDS011;885;42.626;23.200;2023-07-13T02:25:41;5.60;;;5.10;;
1775;SDS011;885;42.626;23.200;2023-07-13T02:28:08;7.13;;;4.50;;
1775;SDS011;885;42.626;23.200;2023-07-13T02:30:36;5.23;;;4.50;;
1775;SDS011;885;42.626;23.200;2023-07-13T02:33:04;4.83;;;4.43;;
1775;SDS011;885;42.626;23.200;2023-07-13T02:35:31;5.00;;;4.50;;
1775;SDS011;885;42.626;23.200;2023-07-13T02:37:58;4.90;;;4.40;;
1775;SDS011;885;42.626;23.200;2023-07-13T02:40:25;5.03;;;4.53;;
1775;SDS011;885;42.626;23.200;2023-07-13T02:42:52;5.80;;;5.30;;
1775;SDS011;885;42.626;23.200;2023-07-13T02:45:18;5.43;;;4.93;;
1775;SDS011;885;42.626;23.200;2023-07-13T02:47:46;5.90;;;4.83;;
1775;SDS011;885;42.626;23.200;2023-07-13T02:50:13;5.57;;;5.03;;
1775;SDS011;885;42.626;23.200;2023-07-13T02:52:40;5.90;;;4.40;;
1775;SDS011;885;42.626;23.200;2023-07-13T02:55:07;6.40;;;4.90;;
1775;SDS011;885;42.626;23.200;2023-07-13T02:57:34;5.27;;;4.63;;
1775;SDS011;885;42.626;23.200;2023-07-13T03:00:02;4.97;;;4.57;;
1775;SDS011;885;42.626;23.200;2023-07-13T03:02:31;5.70;;;4.00;;
1775;SDS011;885;42.626;23.200;2023-07-13T03:04:59;6.60;;;5.00;;
1775;SDS011;885;42.626;23.200;2023-07-13T03:07:26;7.90;;;5.00;;
1775;SDS011;885;42.626;23.200;2023-07-13T03:09:56;4.73;;;4.33;;
1775;SDS011;885;42.626;23.200;2023-07-13T03:12:25;6.10;;;4.80;;
1775;SDS011;885;42.626;23.200;2023-07-13T03:14:52;11.10;;;5.20;;
1775;SDS011;885;42.626;23.200;2023-07-13T03:17:19;5.53;;;5.03;;
1775;SDS011;885;42.626;23.200;2023-07-13T03:19:46;6.47;;;5.10;;
1775;SDS011;885;42.626;23.200;2023-07-13T03:22:16;6.90;;;4.63;;
1775;SDS011;885;42.626;23.200;2023-07-13T03:24:43;6.50;;;5.73;;
1775;SDS011;885;42.626;23.200;2023-07-13T03:27:09;5.97;;;5.03;;
1775;SDS011;885;42.626;23.200;2023-07-13T03:29:36;6.00;;;5.50;;
1775;SDS011;885;42.626;23.200;2023-07-13T03:32:03;6.37;;;5.77;;
1775;SDS011;885;42.626;23.200;2023-07-13T03:34:31;8.20;;;6.70;;
1775;SDS011;885;42.626;23.200;2023-07-13T03:36:58;7.23;;;5.50;;
1775;SDS011;885;42.626;23.200;2023-07-13T03:39:26;5.47;;;4.83;;
1775;SDS011;885;42.626;23.200;2023-07-13T03:41:53;7.50;;;5.80;;
1775;SDS011;885;42.626;23.200;2023-07-13T03:44:20;5.60;;;4.90;;
1775;SDS011;885;42.626;23.200;2023-07-13T03:46:47;6.53;;;5.20;;
1775;SDS011;885;42.626;23.200;2023-07-13T03:49:14;5.80;;;5.20;;
1775;SDS011;885;42.626;23.200;2023-07-13T03:51:41;7.60;;;5.53;;
1775;SDS011;885;42.626;23.200;2023-07-13T03:54:07;7.03;;;5.60;;
1775;SDS011;885;42.626;23.200;2023-07-13T03:56:36;6.67;;;6.07;;
1775;SDS011;885;42.626;23.200;2023-07-13T03:59:02;5.97;;;5.10;;
1775;SDS011;885;42.626;23.200;2023-07-13T04:01:29;9.30;;;5.67;;
1775;SDS011;885;42.626;23.200;2023-07-13T04:03:57;8.63;;;6.00;;
1775;SDS011;885;42.626;23.200;2023-07-13T04:06:25;8.27;;;5.70;;
1775;SDS011;885;42.626;23.200;2023-07-13T04:08:54;7.90;;;5.50;;
1775;SDS011;885;42.626;23.200;2023-07-13T04:11:24;7.97;;;5.33;;
1775;SDS011;885;42.626;23.200;2023-07-13T04:13:53;7.17;;;6.47;;
1775;SDS011;885;42.626;23.200;2023-07-13T04:16:21;8.03;;;6.30;;
1775;SDS011;885;42.626;23.200;2023-07-13T04:18:48;8.20;;;6.20;;
1775;SDS011;885;42.626;23.200;2023-07-13T04:21:15;6.17;;;5.57;;
1775;SDS011;885;42.626;23.200;2023-07-13T04:23:43;5.80;;;5.23;;
1775;SDS011;885;42.626;23.200;2023-07-13T04:26:10;7.07;;;5.60;;
1775;SDS011;885;42.626;23.200;2023-07-13T04:28:37;6.90;;;6.20;;
1775;SDS011;885;42.626;23.200;2023-07-13T04:31:05;7.43;;;6.50;;
1775;SDS011;885;42.626;23.200;2023-07-13T04:33:32;8.50;;;7.10;;
1775;SDS011;885;42.626;23.200;2023-07-13T04:35:59;6.30;;;5.70;;
1775;SDS011;885;42.626;23.200;2023-07-13T04:38:27;8.03;;;6.67;;
1775;SDS011;885;42.626;23.200;2023-07-13T04:40:57;6.40;;;5.50;;
1775;SDS011;885;42.626;23.200;2023-07-13T04:43:26;7.27;;;5.50;;
1775;SDS011;885;42.626;23.200;2023-07-13T04:45:54;7.53;;;6.47;;
1775;SDS011;885;42.626;23.200;2023-07-13T04:48:22;7.23;;;6.17;;
1775;SDS011;885;42.626;23.200;2023-07-13T04:50:54;6.27;;;5.53;;
1775;SDS011;885;42.626;23.200;2023-07-13T04:53:21;9.80;;;7.10;;
1775;SDS011;885;42.626;23.200;2023-07-13T04:55:48;8.13;;;6.77;;
1775;SDS011;885;42.626;23.200;2023-07-13T04:58:15;10.00;;;6.70;;
1775;SDS011;885;42.626;23.200;2023-07-13T05:00:42;7.53;;;6.07;;
1775;SDS011;885;42.626;23.200;2023-07-13T05:03:09;8.27;;;6.70;;
1775;SDS011;885;42.626;23.200;2023-07-13T05:05:38;7.97;;;7.00;;
1775;SDS011;885;42.626;23.200;2023-07-13T05:08:05;7.50;;;5.63;;
1775;SDS011;885;42.626;23.200;2023-07-13T05:10:32;10.17;;;6.73;;
1775;SDS011;885;42.626;23.200;2023-07-13T05:12:59;6.73;;;6.03;;
1775;SDS011;885;42.626;23.200;2023-07-13T05:15:26;7.10;;;5.90;;
1775;SDS011;885;42.626;23.200;2023-07-13T05:17:53;7.17;;;5.70;;
1775;SDS011;885;42.626;23.200;2023-07-13T05:20:20;6.90;;;6.07;;
1775;SDS011;885;42.626;23.200;2023-07-13T05:22:48;9.13;;;6.53;;
1775;SDS011;885;42.626;23.200;2023-07-13T05:25:15;7.80;;;6.37;;
1775;SDS011;885;42.626;23.200;2023-07-13T05:27:42;9.40;;;6.73;;
1775;SDS011;885;42.626;23.200;2023-07-13T05:30:11;8.23;;;6.63;;
1775;SDS011;885;42.626;23.200;2023-07-13T05:32:38;7.20;;;6.50;;
1775;SDS011;885;42.626;23.200;2023-07-13T05:35:05;9.10;;;6.93;;
1775;SDS011;885;42.626;23.200;2023-07-13T05:37:32;7.37;;;6.50;;
1775;SDS011;885;42.626;23.200;2023-07-13T05:40:00;7.50;;;6.70;;
1775;SDS011;885;42.626;23.200;2023-07-13T05:42:27;7.57;;;6.27;;
1775;SDS011;885;42.626;23.200;2023-07-13T05:44:56;7.27;;;6.33;;
1775;SDS011;885;42.626;23.200;2023-07-13T05:47:23;8.83;;;7.30;;
1775;SDS011;885;42.626;23.200;2023-07-13T05:49:49;8.47;;;7.17;;
1775;SDS011;885;42.626;23.200;2023-07-13T05:52:16;8.37;;;7.27;;
1775;SDS011;885;42.626;23.200;2023-07-13T05:54:46;8.40;;;7.43;;
1775;SDS011;885;42.626;23.200;2023-07-13T05:57:14;9.20;;;6.13;;
1775;SDS011;885;42.626;23.200;2023-07-13T05:59:41;9.80;;;6.93;;
1775;SDS011;885;42.626;23.200;2023-07-13T06:02:08;10.23;;;8.70;;
1775;SDS011;885;42.626;23.200;2023-07-13T06:04:36;9.00;;;7.40;;
1775;SDS011;885;42.626;23.200;2023-07-13T06:07:05;13.50;;;8.37;;
1775;SDS011;885;42.626;23.200;2023-07-13T06:09:33;10.27;;;6.70;;
1775;SDS011;885;42.626;23.200;2023-07-13T06:12:00;8.57;;;7.40;;
1775;SDS011;885;42.626;23.200;2023-07-13T06:14:28;8.70;;;7.73;;
1775;SDS011;885;42.626;23.200;2023-07-13T06:16:55;11.87;;;7.63;;
1775;SDS011;885;42.626;23.200;2023-07-13T06:19:21;9.10;;;6.97;;
1775;SDS011;885;42.626;23.200;2023-07-13T06:21:48;13.00;;;8.23;;
1775;SDS011;885;42.626;23.200;2023-07-13T06:24:15;9.73;;;7.93;;
1775;SDS011;885;42.626;23.200;2023-07-13T06:26:42;9.53;;;7.30;;
1775;SDS011;885;42.626;23.200;2023-07-13T06:29:08;10.93;;;7.30;;
1775;SDS011;885;42.626;23.200;2023-07-13T06:31:37;10.73;;;7.93;;
1775;SDS011;885;42.626;23.200;2023-07-13T06:34:03;12.73;;;7.80;;
1775;SDS011;885;42.626;23.200;2023-07-13T06:36:30;10.20;;;7.77;;
1775;SDS011;885;42.626;23.200;2023-07-13T06:38:57;11.43;;;8.03;;
1775;SDS011;885;42.626;23.200;2023-07-13T06:41:24;16.60;;;9.97;;
1775;SDS011;885;42.626;23.200;2023-07-13T06:43:51;11.53;;;7.87;;
1775;SDS011;885;42.626;23.200;2023-07-13T06:46:19;13.13;;;8.07;;
1775;SDS011;885;42.626;23.200;2023-07-13T06:48:48;8.97;;;7.37;;
1775;SDS011;885;42.626;23.200;2023-07-13T06:51:15;11.43;;;6.97;;
1775;SDS011;885;42.626;23.200;2023-07-13T06:53:42;10.17;;;7.67;;
1775;SDS011;885;42.626;23.200;2023-07-13T06:56:09;9.73;;;7.80;;
1775;SDS011;885;42.626;23.200;2023-07-13T06:58:36;13.93;;;8.43;;
1775;SDS011;885;42.626;23.200;2023-07-13T07:01:04;15.47;;;7.80;;
1775;SDS011;885;42.626;23.200;2023-07-13T07:03:31;10.80;;;8.50;;
1775;SDS011;885;42.626;23.200;2023-07-13T07:06:01;12.17;;;8.20;;
1775;SDS011;885;42.626;23.200;2023-07-13T07:08:38;14.87;;;9.17;;
1775;SDS011;885;42.626;23.200;2023-07-13T07:11:05;12.93;;;9.27;;
1775;SDS011;885;42.626;23.200;2023-07-13T07:13:32;11.47;;;9.37;;
1775;SDS011;885;42.626;23.200;2023-07-13T07:15:58;18.50;;;8.13;;
1775;SDS011;885;42.626;23.200;2023-07-13T07:18:26;14.20;;;8.17;;
1775;SDS011;885;42.626;23.200;2023-07-13T07:20:52;12.93;;;8.43;;
1775;SDS011;885;42.626;23.200;2023-07-13T07:23:21;13.33;;;7.63;;
1775;SDS011;885;42.626;23.200;2023-07-13T07:25:48;15.40;;;8.23;;
1775;SDS011;885;42.626;23.200;2023-07-13T07:28:14;11.70;;;7.63;;
1775;SDS011;885;42.626;23.200;2023-07-13T07:30:43;9.20;;;6.73;;
1775;SDS011;885;42.626;23.200;2023-07-13T07:33:11;8.27;;;6.50;;
1775;SDS011;885;42.626;23.200;2023-07-13T07:35:38;8.70;;;6.47;;
1775;SDS011;885;42.626;23.200;2023-07-13T07:38:04;6.70;;;5.90;;
1775;SDS011;885;42.626;23.200;2023-07-13T07:40:35;9.80;;;6.50;;
1775;SDS011;885;42.626;23.200;2023-07-13T07:43:02;7.33;;;6.10;;
1775;SDS011;885;42.626;23.200;2023-07-13T07:45:29;5.40;;;4.83;;
1775;SDS011;885;42.626;23.200;2023-07-13T07:47:56;5.60;;;4.90;;
1775;SDS011;885;42.626;23.200;2023-07-13T07:50:24;6.90;;;4.70;;
1775;SDS011;885;42.626;23.200;2023-07-13T07:52:51;6.00;;;4.63;;
1775;SDS011;885;42.626;23.200;2023-07-13T07:55:18;6.17;;;4.40;;
1775;SDS011;885;42.626;23.200;2023-07-13T07:57:46;8.40;;;5.53;;
1775;SDS011;885;42.626;23.200;2023-07-13T08:00:13;5.57;;;4.50;;
1775;SDS011;885;42.626;23.200;2023-07-13T08:02:41;6.93;;;4.43;;
1775;SDS011;885;42.626;23.200;2023-07-13T08:05:08;7.10;;;4.87;;
1775;SDS011;885;42.626;23.200;2023-07-13T08:07:35;6.33;;;4.50;;
1775;SDS011;885;42.626;23.200;2023-07-13T08:10:03;5.77;;;4.40;;
1775;SDS011;885;42.626;23.200;2023-07-13T08:12:30;9.53;;;4.50;;
1775;SDS011;885;42.626;23.200;2023-07-13T08:15:02;7.90;;;4.20;;
1775;SDS011;885;42.626;23.200;2023-07-13T08:17:29;5.60;;;5.00;;
1775;SDS011;885;42.626;23.200;2023-07-13T08:19:55;7.87;;;5.10;;
1775;SDS011;885;42.626;23.200;2023-07-13T08:22:22;4.57;;;4.17;;
1775;SDS011;885;42.626;23.200;2023-07-13T08:24:49;7.03;;;4.63;;
1775;SDS011;885;42.626;23.200;2023-07-13T08:27:21;5.63;;;4.00;;
1775;SDS011;885;42.626;23.200;2023-07-13T08:29:48;5.57;;;4.30;;
1775;SDS011;885;42.626;23.200;2023-07-13T08:32:17;5.10;;;3.83;;
1775;SDS011;885;42.626;23.200;2023-07-13T08:34:44;9.80;;;4.20;;
1775;SDS011;885;42.626;23.200;2023-07-13T08:37:11;7.27;;;4.37;;
1775;SDS011;885;42.626;23.200;2023-07-13T08:39:38;6.03;;;4.17;;
1775;SDS011;885;42.626;23.200;2023-07-13T08:42:05;6.27;;;4.20;;
1775;SDS011;885;42.626;23.200;2023-07-13T08:44:39;5.17;;;3.67;;
1775;SDS011;885;42.626;23.200;2023-07-13T08:47:17;7.73;;;4.07;;
1775;SDS011;885;42.626;23.200;2023-07-13T08:49:48;8.80;;;5.00;;
1775;SDS011;885;42.626;23.200;2023-07-13T08:52:17;5.27;;;4.20;;
1775;SDS011;885;42.626;23.200;2023-07-13T08:54:55;8.00;;;4.50;;
1775;SDS011;885;42.626;23.200;2023-07-13T08:57:25;4.53;;;4.13;;
1775;SDS011;885;42.626;23.200;2023-07-13T09:00:00;6.60;;;5.20;;
1775;SDS011;885;42.626;23.200;2023-07-13T09:02:34;4.87;;;4.43;;
1775;SDS011;885;42.626;23.200;2023-07-13T09:05:10;7.40;;;4.83;;
1775;SDS011;885;42.626;23.200;2023-07-13T09:07:48;5.00;;;4.47;;
1775;SDS011;885;42.626;23.200;2023-07-13T09:10:28;5.47;;;4.90;;
1775;SDS011;885;42.626;23.200;2023-07-13T09:13:02;5.03;;;4.30;;
1775;SDS011;885;42.626;23.200;2023-07-13T09:15:41;6.17;;;4.60;;
1775;SDS011;885;42.626;23.200;2023-07-13T09:18:13;6.10;;;4.30;;
1775;SDS011;885;42.626;23.200;2023-07-13T09:20:48;6.10;;;4.77;;
1775;SDS011;885;42.626;23.200;2023-07-13T09:23:19;5.13;;;4.37;;
1775;SDS011;885;42.626;23.200;2023-07-13T09:25:49;5.07;;;4.20;;
1775;SDS011;885;42.626;23.200;2023-07-13T09:28:22;6.73;;;5.10;;
1775;SDS011;885;42.626;23.200;2023-07-13T09:30:52;6.37;;;4.17;;
1775;SDS011;885;42.626;23.200;2023-07-13T09:33:26;7.30;;;4.67;;
1775;SDS011;885;42.626;23.200;2023-07-13T09:35:55;6.30;;;5.63;;
1775;SDS011;885;42.626;23.200;2023-07-13T09:38:24;6.47;;;5.87;;
1775;SDS011;885;42.626;23.200;2023-07-13T09:40:58;5.00;;;4.50;;
1775;SDS011;885;42.626;23.200;2023-07-13T09:43:34;4.43;;;4.00;;
1775;SDS011;885;42.626;23.200;2023-07-13T09:46:01;5.37;;;3.90;;
1775;SDS011;885;42.626;23.200;2023-07-13T09:48:34;6.50;;;4.50;;
1775;SDS011;885;42.626;23.200;2023-07-13T09:51:06;5.10;;;4.47;;
1775;SDS011;885;42.626;23.200;2023-07-13T09:53:40;5.97;;;4.43;;
1775;SDS011;885;42.626;23.200;2023-07-13T09:56:11;5.80;;;4.40;;
1775;SDS011;885;42.626;23.200;2023-07-13T09:58:45;6.10;;;4.93;;
1775;SDS011;885;42.626;23.200;2023-07-13T10:01:12;7.57;;;5.50;;
1775;SDS011;885;42.626;23.200;2023-07-13T10:03:51;6.80;;;4.73;;
1775;SDS011;885;42.626;23.200;2023-07-13T10:06:20;6.67;;;5.10;;
1775;SDS011;885;42.626;23.200;2023-07-13T10:08:49;6.40;;;4.07;;
1775;SDS011;885;42.626;23.200;2023-07-13T10:11:18;9.90;;;5.50;;
1775;SDS011;885;42.626;23.200;2023-07-13T10:13:50;5.03;;;4.13;;
1775;SDS011;885;42.626;23.200;2023-07-13T10:16:19;6.00;;;4.37;;
1775;SDS011;885;42.626;23.200;2023-07-13T10:18:48;5.43;;;4.40;;
1775;SDS011;885;42.626;23.200;2023-07-13T10:21:16;9.30;;;4.10;;
1775;SDS011;885;42.626;23.200;2023-07-13T10:23:47;6.07;;;4.87;;
1775;SDS011;885;42.626;23.200;2023-07-13T10:26:19;6.30;;;5.20;;
1775;SDS011;885;42.626;23.200;2023-07-13T10:28:51;8.83;;;4.80;;
1775;SDS011;885;42.626;23.200;2023-07-13T10:31:22;4.67;;;4.20;;
1775;SDS011;885;42.626;23.200;2023-07-13T10:33:51;6.77;;;4.87;;
1775;SDS011;885;42.626;23.200;2023-07-13T10:36:20;6.70;;;4.80;;
1775;SDS011;885;42.626;23.200;2023-07-13T10:38:54;6.70;;;4.70;;
1775;SDS011;885;42.626;23.200;2023-07-13T10:41:24;6.87;;;5.00;;
1775;SDS011;885;42.626;23.200;2023-07-13T10:43:54;7.20;;;5.40;;
1775;SDS011;885;42.626;23.200;2023-07-13T10:46:24;9.57;;;5.90;;
1775;SDS011;885;42.626;23.200;2023-07-13T10:48:56;6.60;;;5.50;;
1775;SDS011;885;42.626;23.200;2023-07-13T10:51:25;7.00;;;5.77;;
1775;SDS011;885;42.626;23.200;2023-07-13T10:54:14;10.70;;;7.47;;
1775;SDS011;885;42.626;23.200;2023-07-13T10:56:43;6.13;;;5.53;;
1775;SDS011;885;42.626;23.200;2023-07-13T10:59:13;6.37;;;5.57;;
1775;SDS011;885;42.626;23.200;2023-07-13T11:01:53;7.27;;;5.27;;
1775;SDS011;885;42.626;23.200;2023-07-13T11:04:23;5.20;;;4.70;;
1775;SDS011;885;42.626;23.200;2023-07-13T11:06:53;8.63;;;4.40;;
1775;SDS011;885;42.626;23.200;2023-07-13T11:09:31;8.67;;;5.93;;
1775;SDS011;885;42.626;23.200;2023-07-13T11:12:02;6.20;;;5.07;;
1775;SDS011;885;42.626;23.200;2023-07-13T11:14:34;5.87;;;5.27;;
1775;SDS011;885;42.626;23.200;2023-07-13T11:20:23;6.43;;;5.30;;
1775;SDS011;885;42.626;23.200;2023-07-13T11:25:55;5.40;;;4.87;;
1775;SDS011;885;42.626;23.200;2023-07-13T11:28:23;8.83;;;5.50;;
1775;SDS011;885;42.626;23.200;2023-07-13T11:31:00;6.07;;;4.87;;
1775;SDS011;885;42.626;23.200;2023-07-13T11:33:31;5.50;;;5.00;;
1775;SDS011;885;42.626;23.200;2023-07-13T11:36:18;8.13;;;5.43;;
1775;SDS011;885;42.626;23.200;2023-07-13T11:38:49;7.67;;;6.00;;
1775;SDS011;885;42.626;23.200;2023-07-13T11:41:27;6.40;;;4.77;;
1775;SDS011;885;42.626;23.200;2023-07-13T11:44:01;6.30;;;5.60;;
1775;SDS011;885;42.626;23.200;2023-07-13T11:46:32;5.23;;;4.73;;
1775;SDS011;885;42.626;23.200;2023-07-13T11:48:59;9.30;;;5.37;;
1775;SDS011;885;42.626;23.200;2023-07-13T11:51:27;8.60;;;5.30;;
1775;SDS011;885;42.626;23.200;2023-07-13T11:53:56;9.97;;;5.23;;
1775;SDS011;885;42.626;23.200;2023-07-13T11:56:26;6.83;;;4.53;;
1775;SDS011;885;42.626;23.200;2023-07-13T11:58:54;8.27;;;5.07;;
1775;SDS011;885;42.626;23.200;2023-07-13T12:01:24;6.93;;;4.40;;
1775;SDS011;885;42.626;23.200;2023-07-13T12:03:54;9.17;;;5.10;;
1775;SDS011;885;42.626;23.200;2023-07-13T12:06:23;5.80;;;4.83;;
1775;SDS011;885;42.626;23.200;2023-07-13T12:08:57;6.10;;;4.50;;
1775;SDS011;885;42.626;23.200;2023-07-13T12:11:26;5.70;;;4.13;;
1775;SDS011;885;42.626;23.200;2023-07-13T12:13:53;10.73;;;4.87;;
1775;SDS011;885;42.626;23.200;2023-07-13T12:16:23;6.43;;;4.33;;
1775;SDS011;885;42.626;23.200;2023-07-13T12:18:53;6.30;;;4.23;;
1775;SDS011;885;42.626;23.200;2023-07-13T12:21:23;6.70;;;5.17;;
1775;SDS011;885;42.626;23.200;2023-07-13T12:23:57;7.63;;;5.10;;
1775;SDS011;885;42.626;23.200;2023-07-13T12:26:24;5.13;;;4.00;;
1775;SDS011;885;42.626;23.200;2023-07-13T12:28:52;5.93;;;5.00;;
1775;SDS011;885;42.626;23.200;2023-07-13T12:31:33;7.43;;;4.80;;
1775;SDS011;885;42.626;23.200;2023-07-13T12:34:06;4.40;;;4.00;;
1775;SDS011;885;42.626;23.200;2023-07-13T12:36:36;7.23;;;4.20;;
1775;SDS011;885;42.626;23.200;2023-07-13T12:39:12;7.33;;;4.67;;
1775;SDS011;885;42.626;23.200;2023-07-13T12:41:40;5.67;;;5.03;;
1775;SDS011;885;42.626;23.200;2023-07-13T12:44:10;8.50;;;5.20;;
1775;SDS011;885;42.626;23.200;2023-07-13T12:46:39;8.40;;;5.93;;
1775;SDS011;885;42.626;23.200;2023-07-13T12:49:07;7.63;;;4.40;;
1775;SDS011;885;42.626;23.200;2023-07-13T12:51:34;7.13;;;4.87;;
1775;SDS011;885;42.626;23.200;2023-07-13T12:54:06;7.10;;;5.00;;
1775;SDS011;885;42.626;23.200;2023-07-13T12:56:41;9.63;;;4.47;;
1775;SDS011;885;42.626;23.200;2023-07-13T12:59:11;5.70;;;4.70;;
1775;SDS011;885;42.626;23.200;2023-07-13T13:01:45;6.00;;;4.30;;
1775;SDS011;885;42.626;23.200;2023-07-13T13:04:14;5.40;;;4.40;;
1775;SDS011;885;42.626;23.200;2023-07-13T13:06:47;7.53;;;4.13;;
1775;SDS011;885;42.626;23.200;2023-07-13T13:09:16;5.80;;;4.20;;
1775;SDS011;885;42.626;23.200;2023-07-13T13:11:45;6.93;;;4.57;;
1775;SDS011;885;42.626;23.200;2023-07-13T13:14:12;6.90;;;4.73;;
1775;SDS011;885;42.626;23.200;2023-07-13T13:16:43;6.43;;;4.50;;
1775;SDS011;885;42.626;23.200;2023-07-13T13:19:15;5.03;;;3.83;;
1775;SDS011;885;42.626;23.200;2023-07-13T13:21:43;5.33;;;3.90;;
1775;SDS011;885;42.626;23.200;2023-07-13T13:24:14;9.13;;;4.67;;
1775;SDS011;885;42.626;23.200;2023-07-13T13:26:43;7.53;;;4.60;;
1775;SDS011;885;42.626;23.200;2023-07-13T13:29:11;5.63;;;4.37;;
1775;SDS011;885;42.626;23.200;2023-07-13T13:31:40;7.03;;;4.70;;
1775;SDS011;885;42.626;23.200;2023-07-13T13:34:08;4.53;;;4.13;;
1775;SDS011;885;42.626;23.200;2023-07-13T13:36:36;5.67;;;4.10;;
1775;SDS011;885;42.626;23.200;2023-07-13T13:39:05;10.20;;;4.57;;
1775;SDS011;885;42.626;23.200;2023-07-13T13:41:44;10.50;;;4.50;;
1775;SDS011;885;42.626;23.200;2023-07-13T13:44:11;6.30;;;4.33;;
1775;SDS011;885;42.626;23.200;2023-07-13T13:46:39;8.40;;;4.30;;
1775;SDS011;885;42.626;23.200;2023-07-13T13:49:08;7.07;;;4.23;;
1775;SDS011;885;42.626;23.200;2023-07-13T13:51:39;6.00;;;4.70;;
1775;SDS011;885;42.626;23.200;2023-07-13T13:54:08;5.17;;;4.60;;
1775;SDS011;885;42.626;23.200;2023-07-13T13:56:38;4.80;;;4.17;;
1775;SDS011;885;42.626;23.200;2023-07-13T13:59:06;6.67;;;4.43;;
1775;SDS011;885;42.626;23.200;2023-07-13T14:01:34;8.43;;;5.03;;
1775;SDS011;885;42.626;23.200;2023-07-13T14:04:01;7.70;;;4.70;;
1775;SDS011;885;42.626;23.200;2023-07-13T14:06:28;7.00;;;4.80;;
1775;SDS011;885;42.626;23.200;2023-07-13T14:08:55;6.17;;;4.17;;
1775;SDS011;885;42.626;23.200;2023-07-13T14:11:23;10.00;;;4.77;;
1775;SDS011;885;42.626;23.200;2023-07-13T14:13:53;7.50;;;5.20;;
1775;SDS011;885;42.626;23.200;2023-07-13T14:16:25;7.87;;;4.93;;
1775;SDS011;885;42.626;23.200;2023-07-13T14:18:55;8.37;;;5.30;;
1775;SDS011;885;42.626;23.200;2023-07-13T14:21:23;9.70;;;5.47;;
1775;SDS011;885;42.626;23.200;2023-07-13T14:23:50;6.10;;;4.27;;
1775;SDS011;885;42.626;23.200;2023-07-13T14:26:18;10.17;;;5.20;;
1775;SDS011;885;42.626;23.200;2023-07-13T14:28:47;7.73;;;5.20;;
1775;SDS011;885;42.626;23.200;2023-07-13T14:31:16;10.40;;;5.10;;
1775;SDS011;885;42.626;23.200;2023-07-13T14:33:45;5.60;;;4.73;;
1775;SDS011;885;42.626;23.200;2023-07-13T14:36:16;7.93;;;4.93;;
1775;SDS011;885;42.626;23.200;2023-07-13T14:38:50;7.53;;;5.60;;
1775;SDS011;885;42.626;23.200;2023-07-13T14:41:16;5.17;;;4.67;;
1775;SDS011;885;42.626;23.200;2023-07-13T14:43:43;9.93;;;4.67;;
1775;SDS011;885;42.626;23.200;2023-07-13T14:46:12;10.23;;;4.67;;
1775;SDS011;885;42.626;23.200;2023-07-13T14:48:52;5.67;;;4.70;;
1775;SDS011;885;42.626;23.200;2023-07-13T14:51:24;5.57;;;4.17;;
1775;SDS011;885;42.626;23.200;2023-07-13T14:53:51;8.50;;;5.20;;
1775;SDS011;885;42.626;23.200;2023-07-13T14:56:18;7.00;;;4.10;;
1775;SDS011;885;42.626;23.200;2023-07-13T14:58:44;6.43;;;4.37;;
1775;SDS011;885;42.626;23.200;2023-07-13T15:01:12;6.13;;;4.00;;
1775;SDS011;885;42.626;23.200;2023-07-13T15:03:44;9.20;;;4.30;;
1775;SDS011;885;42.626;23.200;2023-07-13T15:06:13;6.20;;;5.00;;
1775;SDS011;885;42.626;23.200;2023-07-13T15:08:41;5.10;;;3.93;;
1775;SDS011;885;42.626;23.200;2023-07-13T15:11:08;5.53;;;4.03;;
1775;SDS011;885;42.626;23.200;2023-07-13T15:13:37;6.90;;;4.63;;
1775;SDS011;885;42.626;23.200;2023-07-13T15:16:04;8.37;;;5.10;;
1775;SDS011;885;42.626;23.200;2023-07-13T15:18:39;7.30;;;4.63;;
1775;SDS011;885;42.626;23.200;2023-07-13T15:21:07;6.30;;;4.30;;
1775;SDS011;885;42.626;23.200;2023-07-13T15:23:39;6.80;;;4.03;;
1775;SDS011;885;42.626;23.200;2023-07-13T15:26:07;4.83;;;4.23;;
1775;SDS011;885;42.626;23.200;2023-07-13T15:28:38;5.00;;;4.27;;
1775;SDS011;885;42.626;23.200;2023-07-13T15:31:08;7.30;;;5.17;;